• Join FlightAware (Why Join?)
  • Login
  • US Flag 
Rudolph Flight #1: Arrived! 
04:58PM EST


 

Airport Tracker/Info


-or-


 

Live Flight TrackerFlight Track Log ✈ UAL822 ✈ 05-May-2013 ✈ MMMX / MEX - KIAD

Flight Track Log - Related Links

Times and Time Zones

All times are in EDT time to prevent confusion due to time zone crossing. See the UAL822 flight status page for this flight to view local times or setup timezone preferences in your user account.

Time Position Orientation Groundspeed Altitude Reporting Facility
EDT Latitude Longitude Course Direction KTS MPH feet Rate Location/Type
11:15AM 19.5258 -98.7060 70° East  Level FlightAware Approximate
11:16AM 19.5642 -98.5859 72° East  Level FlightAware Approximate
11:17AM 19.6008 -98.4651 62° Northeast  Level FlightAware Approximate
11:18AM 19.6688 -98.3783 North  Level FlightAware Approximate
11:19AM 19.7871 -98.3599 10° North  Level FlightAware Approximate
11:20AM 19.9049 -98.3385 10° North  Level FlightAware Approximate
11:21AM 20.0217 -98.3113 13° North  Level FlightAware Approximate
11:22AM 20.1382 -98.2825 North  Level FlightAware Approximate
11:23AM 20.2561 -98.2617 North  Level FlightAware Approximate
11:24AM 20.3741 -98.2409 North  Level FlightAware Approximate
11:25AM 20.4915 -98.2167 12° North  Level FlightAware Approximate
11:26AM 20.6086 -98.1907 12° North  Level FlightAware Approximate
11:27AM 20.7257 -98.1652 North  Level FlightAware Approximate
11:28AM 20.8437 -98.1442 11° North  Level FlightAware Approximate
11:29AM 20.9609 -98.1191 11° North  Level FlightAware Approximate
11:30AM 21.0782 -98.0940 11° North  Level FlightAware Approximate
11:31AM 21.1954 -98.0688 11° North  Level FlightAware Approximate
11:32AM 21.3129 -98.0446 10° North  Level FlightAware Approximate
11:33AM 21.4308 -98.0232 10° North  Level FlightAware Approximate
11:34AM 21.5487 -98.0018 10° North  Level FlightAware Approximate
11:35AM 21.6665 -97.9799 11° North  Level FlightAware Approximate
11:36AM 21.7839 -97.9553 11° North  Level FlightAware Approximate
11:37AM 21.9012 -97.9306 11° North  Level FlightAware Approximate
11:38AM 22.0186 -97.9059 11° North  Level FlightAware Approximate
11:39AM 22.1360 -97.8811 11° North  Level FlightAware Approximate
11:40AM 22.2533 -97.8564 11° North  Level FlightAware Approximate
11:41AM 22.3720 -97.8417 North  Level FlightAware Approximate
11:42AM 22.4911 -97.8305 North  Level FlightAware Approximate
11:43AM 22.6103 -97.8193 North  Level FlightAware Approximate
11:44AM 22.7294 -97.8081 North  Level FlightAware Approximate
11:45AM 22.8485 -97.7968 North  Level FlightAware Approximate
11:46AM 22.9676 -97.7855 North  Level FlightAware Approximate
11:47AM 23.0868 -97.7742 North  Level FlightAware Approximate
11:48AM 23.2060 -97.7661 North  Level FlightAware Approximate
11:49AM 23.3252 -97.7556 North  Level FlightAware Approximate
11:50AM 23.4444 -97.7451 North  Level FlightAware Approximate
11:51AM 23.5636 -97.7346 North  Level FlightAware Approximate
11:52AM 23.6828 -97.7240 North  Level FlightAware Approximate
11:53AM 23.8020 -97.7134 North  Level FlightAware Approximate
11:54AM 23.9212 -97.7029 North  Level FlightAware Approximate
11:55AM 24.0403 -97.6922 North  Level FlightAware Approximate
11:56AM 24.1595 -97.6816 North  Level FlightAware Approximate
11:57AM 24.2787 -97.6710 North  Level FlightAware Approximate
11:58AM 24.3979 -97.6603 North  Level FlightAware Approximate
11:59AM 24.5170 -97.6496 North  Level FlightAware Approximate
12:00PM 24.6362 -97.6389 North  Level FlightAware Approximate
12:01PM 24.7554 -97.6281 North  Level FlightAware Approximate
12:02PM 24.8746 -97.6174 North  Level FlightAware Approximate
12:03PM 24.9938 -97.6066 North  Level FlightAware Approximate
12:04PM 25.1128 -97.5945 North  Level FlightAware Approximate
12:05PM 25.2317 -97.5804 North  Level FlightAware Approximate
12:06PM 25.3506 -97.5663 North  Level FlightAware Approximate
12:06PM 25.5553 -97.5625 358° North 450 518 35,000  Level Houston Center
12:07PM 25.4695 -97.5522 North  Level FlightAware Approximate
12:07PM 25.6789 -97.5383 10° North 451 519 35,000  Level Houston Center
12:08PM 25.5884 -97.5380 North  Level FlightAware Approximate
12:08PM 25.8078 -97.4900 19° North 455 524 35,000  Level Houston Center
12:09PM 25.7073 -97.5238 North  Level FlightAware Approximate
12:09PM 25.9247 -97.4247 27° Northeast 471 542 35,000  Level Houston Center
12:10PM 25.8112 -97.4722 42° Northeast  Level FlightAware Approximate
12:10PM 26.0511 -97.3522 27° Northeast 479 551 35,000  Level Houston Center
12:11PM 25.9000 -97.3833 42° Northeast  Level FlightAware Approximate
12:12PM 26.0163 -97.3699 358° North  Level FlightAware Approximate
12:12PM 26.1561 -97.2572 39° Northeast 489 563 35,000  Level Houston Center
12:13PM 26.2694 -97.1531 39° Northeast 493 567 35,000  Level Houston Center
12:14PM 26.3731 -97.0569 40° Northeast 487 560 35,000  Level Houston Center
12:15PM 26.4847 -96.9539 40° Northeast 485 558 35,000  Level Houston Center
12:16PM 26.5894 -96.8572 40° Northeast 490 564 35,000 -60 Level Houston Center
12:17PM 26.6825 -96.7697 40° Northeast 487 560 34,900  Descending Houston Center
12:18PM 26.7864 -96.6725 40° Northeast 486 559 35,000  Climbing Houston Center
12:19PM 26.9114 -96.5561 40° Northeast 487 560 34,900  Descending Houston Center
12:20PM 27.0203 -96.4539 40° Northeast 485 558 35,000  Climbing Houston Center
12:21PM 27.1228 -96.3572 40° Northeast 483 556 35,000  Level Houston Center
12:22PM 27.2258 -96.2603 40° Northeast 483 556 35,000  Level Houston Center
12:23PM 27.3283 -96.1633 40° Northeast 483 556 35,000  Level Houston Center
12:24PM 27.4314 -96.0656 40° Northeast 485 558 35,000 -60 Level Houston Center
12:25PM 27.5342 -95.9678 40° Northeast 484 557 34,900  Descending Houston Center
12:26PM 27.6589 -95.8486 40° Northeast 489 563 35,000  Climbing Houston Center
12:27PM 27.7614 -95.7519 40° Northeast 484 557 35,000  Level Houston Center
12:28PM 27.8633 -95.6533 41° Northeast 484 557 35,000  Level Houston Center
12:29PM 27.9664 -95.5544 40° Northeast 486 559 35,000  Level Houston Center
12:30PM 28.0692 -95.4561 40° Northeast 485 558 35,000  Level Houston Center
12:31PM 28.1919 -95.3367 41° Northeast 486 559 35,000  Level Houston Center
12:32PM 28.2933 -95.2375 41° Northeast 483 556 35,000  Level Houston Center
12:33PM 28.3953 -95.1394 40° Northeast 482 555 35,000  Level Houston Center
12:34PM 28.4972 -95.0369 41° Northeast 487 560 35,000  Level Houston Center
12:35PM 28.5997 -94.9392 40° Northeast 485 558 35,000  Level Houston Center
12:36PM 28.6994 -94.8403 41° Northeast 481 554 35,000  Level Houston Center
12:37PM 28.8211 -94.7222 40° Northeast 480 552 35,000  Level Houston Center
12:38PM 28.9231 -94.6222 41° Northeast 483 556 35,000  Level Houston Center
12:39PM 29.0233 -94.5225 41° Northeast 482 555 35,000  Level Houston Center
12:40PM 29.1244 -94.4228 41° Northeast 484 557 35,000  Level Houston Center
12:42PM 29.2261 -94.3217 41° Northeast 485 558 35,000  Level Houston Center
12:43PM 29.3472 -94.2008 41° Northeast 485 558 35,000  Level Houston Center
12:44PM 29.4444 -94.1056 40° Northeast 485 558 35,000 -60 Level Houston Center
12:45PM 29.5472 -94.0028 41° Northeast 489 563 34,900 -60 Descending Houston Center
12:46PM 29.6486 -93.9008 41° Northeast 488 562 34,900  Level Houston Center
12:47PM 29.7708 -93.7775 41° Northeast 487 560 35,000  Climbing Houston Center
12:48PM 29.8717 -93.6761 41° Northeast 485 558 35,000  Level Houston Center
12:49PM 29.9714 -93.5747 41° Northeast 482 555 35,000  Level Houston Center
12:50PM 30.0708 -93.4736 41° Northeast 480 552 35,000 -60 Level Houston Center
12:51PM 30.1900 -93.3508 42° Northeast 486 559 34,900 -60 Descending Houston Center
12:52PM 30.2906 -93.2492 41° Northeast 489 563 34,900  Level Houston Center
12:53PM 30.3911 -93.1469 41° Northeast 489 563 35,000  Climbing Houston Center
12:54PM 30.4911 -93.0444 41° Northeast 485 558 34,900  Descending Houston Center
12:55PM 30.5908 -92.9422 41° Northeast 482 555 35,000  Climbing Houston Center
12:56PM 30.7119 -92.8172 42° Northeast 485 558 35,000  Level Houston Center
12:57PM 30.8100 -92.7139 42° Northeast 476 548 35,000  Level Houston Center
12:58PM 30.9114 -92.6092 42° Northeast 485 558 35,000  Level Houston Center
12:59PM 31.0106 -92.5044 42° Northeast 485 558 35,000 -60 Level Houston Center
01:00PM 31.1125 -92.3978 42° Northeast 488 562 34,900 -60 Descending Houston Center
01:01PM 31.2328 -92.2717 42° Northeast 486 559 34,900  Level Houston Center
01:02PM 31.3342 -92.1661 42° Northeast 487 560 35,000  Climbing Houston Center
01:03PM 31.4358 -92.0592 42° Northeast 491 565 35,000  Level Houston Center
01:04PM 31.5297 -91.9600 42° Northeast 487 560 35,000  Level Houston Center
01:05PM 31.6500 -91.8328 42° Northeast 486 559 35,000  Level Houston Center
01:06PM 31.7497 -91.7272 42° Northeast 485 558 35,000  Level Houston Center
01:07PM 31.8494 -91.6206 42° Northeast 485 558 35,000  Level Houston Center
01:08PM 31.9472 -91.5131 43° Northeast 483 556 35,000  Level Houston Center
01:09PM 32.0469 -91.4069 42° Northeast 483 556 35,000  Level Houston Center
01:11PM 32.1697 -91.2703 43° Northeast 483 556 35,000  Level Memphis Center
01:12PM 32.2706 -91.1608 43° Northeast 483 556 35,000  Level Memphis Center
01:13PM 32.3756 -91.0508 41° Northeast 483 556 35,000  Level Memphis Center
01:14PM 32.4744 -90.9433 43° Northeast 483 556 35,000  Level Memphis Center
01:15PM 32.5731 -90.8356 43° Northeast 483 556 35,000  Level Memphis Center
01:16PM 32.6736 -90.7275 42° Northeast 478 550 35,000  Level Memphis Center
01:17PM 32.7697 -90.6167 44° Northeast 478 550 35,000  Level Memphis Center
01:18PM 32.8681 -90.5106 42° Northeast 478 550 35,000  Level Memphis Center
01:19PM 32.9664 -90.4019 43° Northeast 478 550 35,000  Level Memphis Center
01:20PM 33.0644 -90.2953 42° Northeast 478 550 35,000  Level Memphis Center
01:21PM 33.1603 -90.1861 44° Northeast 472 543 35,000  Level Memphis Center
01:22PM 33.2561 -90.0789 43° Northeast 472 543 35,000  Level Memphis Center
01:23PM 33.3519 -89.9717 43° Northeast 470 541 35,000 120 Level Memphis Center
01:24PM 33.4475 -89.8642 43° Northeast 470 541 35,300 480 Climbing Memphis Center
01:25PM 33.5450 -89.7567 43° Northeast 470 541 36,000 720 Climbing Memphis Center
01:26PM 33.6383 -89.6486 44° Northeast 470 541 36,800 480 Climbing Memphis Center
01:27PM 33.7317 -89.5456 43° Northeast 470 541 37,000 60 Climbing Memphis Center
01:28PM 33.8353 -89.4194 45° Northeast 472 543 37,000  Level Memphis Center
01:29PM 33.9219 -89.3208 43° Northeast 477 549 37,000  Level Memphis Center
01:30PM 34.0192 -89.2069 44° Northeast 477 549 37,000  Level Memphis Center
01:31PM 34.1203 -89.0950 42° Northeast 482 555 37,000  Level Memphis Center
01:32PM 34.2172 -88.9831 44° Northeast 477 549 37,000  Level Memphis Center
01:33PM 34.3181 -88.8658 44° Northeast 477 549 37,000  Level Memphis Center
01:34PM 34.4272 -88.7456 42° Northeast 477 549 37,000  Level Memphis Center
01:35PM 34.5258 -88.6303 44° Northeast 477 549 37,000  Level Memphis Center
01:36PM 34.6119 -88.5200 46° Northeast 487 560 37,000  Level Memphis Center
01:37PM 34.7164 -88.4042 42° Northeast 476 548 37,000  Level Memphis Center
01:38PM 34.8169 -88.2878 44° Northeast 476 548 37,000  Level Memphis Center
01:39PM 34.9131 -88.1742 44° Northeast 476 548 37,000  Level Memphis Center
01:40PM 35.0069 -88.0575 45° Northeast 477 549 37,000  Level Memphis Center
01:41PM 35.1006 -87.9433 45° Northeast 477 549 37,000  Level Memphis Center
01:42PM 35.1964 -87.8339 43° Northeast 472 543 37,000  Level Memphis Center
01:43PM 35.2900 -87.7192 45° Northeast 472 543 37,000  Level Memphis Center
01:44PM 35.3856 -87.6042 44° Northeast 472 543 37,000  Level Memphis Center
01:45PM 35.4689 -87.5019 45° Northeast 472 543 37,000  Level Memphis Center
01:46PM 35.5642 -87.3889 44° Northeast 472 543 37,000  Level Memphis Center
01:47PM 35.6553 -87.2783 45° Northeast 472 543 37,000  Level Memphis Center
01:48PM 35.7419 -87.1547 49° Northeast 472 543 37,000  Level Memphis Center
01:49PM 35.7983 -87.0067 65° Northeast 471 542 37,000  Level Memphis Center
01:50PM 35.8525 -86.8558 66° East 471 542 37,000  Level Memphis Center
01:51PM 35.9067 -86.7050 66° East 471 542 37,000  Level Memphis Center
01:52PM 35.9625 -86.5539 65° Northeast 476 548 37,000  Level Memphis Center
01:53PM 36.0161 -86.4025 66° East 481 554 37,000  Level Memphis Center
01:54PM 36.0719 -86.2561 65° Northeast 476 548 37,000  Level Memphis Center
01:55PM 36.1253 -86.1069 66° East 471 542 37,000  Level Memphis Center
01:57PM 36.2622 -85.7306 66° East 466 536 37,000  Level Indianapolis Center
01:58PM 36.3150 -85.5811 66° East 467 537 37,000  Level Indianapolis Center
01:59PM 36.3681 -85.4328 66° East 467 537 37,000  Level Indianapolis Center
02:00PM 36.4194 -85.2817 67° East 470 541 37,000  Level Indianapolis Center
02:01PM 36.4722 -85.1342 66° East 463 533 37,000  Level Indianapolis Center
02:02PM 36.5242 -84.9842 67° East 468 539 37,000  Level Indianapolis Center
02:03PM 36.5839 -84.8086 67° East 457 526 37,000  Level Indianapolis Center
02:04PM 36.6336 -84.6617 67° East 458 527 37,000  Level Indianapolis Center
02:05PM 36.6844 -84.5133 67° East 464 534 37,000  Level Indianapolis Center
02:06PM 36.7383 -84.3567 67° East 463 533 37,000  Level Indianapolis Center
02:07PM 36.7892 -84.2083 67° East 464 534 37,000  Level Indianapolis Center
02:09PM 36.8389 -84.0606 67° East 462 532 37,000  Level Indianapolis Center
02:10PM 36.8883 -83.9164 67° East 452 520 37,000  Level Indianapolis Center
02:11PM 36.9383 -83.7728 66° East 443 510 37,000  Level Indianapolis Center
02:12PM 36.9853 -83.6289 68° East 445 512 37,000  Level Indianapolis Center
02:13PM 37.0408 -83.4589 68° East 450 518 37,000  Level Indianapolis Center
02:14PM 37.0892 -83.3117 68° East 454 522 37,000  Level Indianapolis Center
02:15PM 37.1389 -83.1631 67° East 458 527 37,000  Level Indianapolis Center
02:16PM 37.1878 -83.0117 68° East 461 531 37,000  Level Indianapolis Center
02:17PM 37.2367 -82.8594 68° East 464 534 37,000  Level Indianapolis Center
02:18PM 37.2861 -82.7086 68° East 462 532 37,000  Level Indianapolis Center
02:19PM 37.3353 -82.5567 68° East 467 537 37,000  Level Indianapolis Center
02:20PM 37.3842 -82.4031 68° East 471 542 37,000  Level Indianapolis Center
02:21PM 37.4411 -82.2236 68° East 472 543 37,000  Level Indianapolis Center
02:22PM 37.4903 -82.0703 68° East 471 542 37,000  Level Indianapolis Center
02:23PM 37.5386 -81.9158 68° East 472 543 37,000  Level Indianapolis Center
02:24PM 37.5853 -81.7653 69° East 463 533 37,000  Level Indianapolis Center
02:25PM 37.6319 -81.6100 69° East 470 541 37,000  Level Indianapolis Center
02:26PM 37.6781 -81.4594 69° East 475 547 37,000  Level Indianapolis Center
02:27PM 37.7339 -81.2786 69° East 472 543 37,000  Level Indianapolis Center
02:28PM 37.7781 -81.1333 69° East 468 539 37,000  Level Washington Center
02:29PM 37.8308 -80.9844 66° East 468 539 37,000  Level Washington Center
02:30PM 37.8858 -80.8281 66° East 468 539 37,000  Level Washington Center
02:31PM 37.9467 -80.6742 63° Northeast 468 539 37,000 -300 Level Washington Center
02:32PM 38.0242 -80.5133 59° Northeast 481 554 36,400 -780 Descending Washington Center
02:33PM 38.0928 -80.3647 60° Northeast 487 560 35,500 -960 Descending Washington Center
02:34PM 38.1614 -80.2161 60° Northeast 487 560 34,600 -900 Descending Washington Center
02:35PM 38.2317 -80.0669 59° Northeast 487 560 33,700 -1,080 Descending Washington Center
02:36PM 38.3019 -79.9150 59° Northeast 487 560 32,500 -2,100 Descending Washington Center
02:37PM 38.3631 -79.7783 60° Northeast 492 566 29,500 -2,880 Descending Washington Center
02:38PM 38.4306 -79.6311 60° Northeast 492 566 26,800 -2,460 Descending Washington Center
02:39PM 38.4956 -79.4939 59° Northeast 471 542 24,700 -1,740 Descending Washington Center
02:40PM 38.5397 -79.3583 67° East 438 504 23,400 -1,560 Descending Washington Center
02:41PM 38.5647 -79.2214 77° East 400 460 21,600 -1,740 Descending Washington Center
02:42PM 38.5833 -79.0869 80° East 389 448 19,900 -1,740 Descending Washington Center
02:43PM 38.6056 -78.9578 78° East 384 442 18,200 -1,620 Descending Washington Center
02:44PM 38.6258 -78.8286 79° East 373 429 16,800 -1,500 Descending Washington Center
02:45PM 38.6539 -78.7128 73° East 356 410 15,300 -1,500 Descending Washington Center
02:46PM 38.6800 -78.5967 74° East 343 395 13,800 -1,500 Descending Washington Center
02:47PM 38.7078 -78.4836 72° East 335 386 12,300 -1,380 Descending Washington Center
02:48PM 38.7372 -78.3808 70° East 319 367 11,200 -1,320 Descending Washington Center
02:49PM 38.8056 -78.3142 37° Northeast 299 344 9,800 -1,140 Descending Washington Center
02:50PM 38.8714 -78.2528 36° Northeast 287 330 8,900 -480 Descending Washington Center
02:51PM 38.9353 -78.1908 37° Northeast 287 330 8,900 -660 Level Washington Center
02:52PM 38.9706 -78.1014 63° Northeast 280 322 7,700 -1,380 Descending Washington Center
02:53PM 38.9850 -78.0083 79° East 257 296 6,200 -1,500 Descending Washington Center
02:54PM 39.0014 -77.9181 77° East 257 296 4,700 -1,260 Descending Washington Center
02:55PM 39.0075 -77.8222 85° East 252 290 3,700 -1,020 Descending Washington Center